IBE421 LEBL-EBBR
Flight info
| Callsign | IBE421 |
|---|---|
| Flight time | 1h 41m |
| Altitude | 34000 |
| Route | OLOXO DCT OKABI DCT TOU DCT ADABI DCT BOKNO UN858 VANAD UN874 BAMES UT191 PODEM UN873 BAZOS DCT BELDI DCT VEKIN Z173 ARVOL |
| Aircraft | A21N/M-SDE2E3FGHIRWXY/LB1 |
Departure
| Time | 2026-05-07 18:20 |
|---|---|
| Airport | Josep Tarradellas Barcelona-El Prat Airport (LEBL) |
Arrival
| Time | 2026-05-07 20:02 |
|---|---|
| Airport | Brussels Airport (EBBR) |
| Time | Latitude | Longitude | Altitude | Speed | Heading |
|---|---|---|---|---|---|
| 2026-05-07 17:42 | 41.29087 | 2.08214 | 13 ft | 0 kts | 336° |
| 2026-05-07 18:06 | 41.29086 | 2.08214 | 13 ft | 1 kts | 336° |
| 2026-05-07 18:07 | 41.29073 | 2.08222 | 13 ft | 2 kts | 335° |
| 2026-05-07 18:07 | 41.29059 | 2.08230 | 13 ft | 2 kts | 336° |
| 2026-05-07 18:07 | 41.29046 | 2.08238 | 13 ft | 2 kts | 336° |
| 2026-05-07 18:07 | 41.29032 | 2.08247 | 13 ft | 2 kts | 347° |
| 2026-05-07 18:08 | 41.29017 | 2.08245 | 13 ft | 2 kts | 26° |
| 2026-05-07 18:08 | 41.29005 | 2.08232 | 13 ft | 1 kts | 59° |
| 2026-05-07 18:08 | 41.29003 | 2.08225 | 13 ft | 1 kts | 69° |
| 2026-05-07 18:08 | 41.29002 | 2.08221 | 13 ft | 0 kts | 66° |
| 2026-05-07 18:12 | 41.29003 | 2.08225 | 13 ft | 0 kts | 66° |
| 2026-05-07 18:13 | 41.29007 | 2.08237 | 13 ft | 1 kts | 66° |
| 2026-05-07 18:13 | 41.29015 | 2.08261 | 13 ft | 3 kts | 66° |
| 2026-05-07 18:13 | 41.29027 | 2.08297 | 13 ft | 6 kts | 65° |
| 2026-05-07 18:13 | 41.29049 | 2.08358 | 14 ft | 7 kts | 62° |
| 2026-05-07 18:14 | 41.29085 | 2.08395 | 14 ft | 6 kts | 19° |
| 2026-05-07 18:14 | 41.29127 | 2.08415 | 14 ft | 2 kts | 20° |
| 2026-05-07 18:14 | 41.29147 | 2.08424 | 13 ft | 4 kts | 17° |
| 2026-05-07 18:14 | 41.29182 | 2.08438 | 13 ft | 5 kts | 17° |
| 2026-05-07 18:15 | 41.29200 | 2.08462 | 14 ft | 4 kts | 98° |
| 2026-05-07 18:15 | 41.29176 | 2.08495 | 13 ft | 6 kts | 153° |
| 2026-05-07 18:15 | 41.29136 | 2.08519 | 14 ft | 6 kts | 156° |
| 2026-05-07 18:15 | 41.29096 | 2.08543 | 14 ft | 6 kts | 155° |
| 2026-05-07 18:16 | 41.29032 | 2.08582 | 16 ft | 16 kts | 155° |
| 2026-05-07 18:16 | 41.28918 | 2.08655 | 16 ft | 18 kts | 153° |
| 2026-05-07 18:16 | 41.28819 | 2.08604 | 17 ft | 17 kts | 244° |
| 2026-05-07 18:16 | 41.28769 | 2.08460 | 16 ft | 17 kts | 245° |
| 2026-05-07 18:17 | 41.28715 | 2.08308 | 13 ft | 18 kts | 245° |
| 2026-05-07 18:17 | 41.28661 | 2.08151 | 13 ft | 18 kts | 245° |
| 2026-05-07 18:17 | 41.28607 | 2.08000 | 13 ft | 18 kts | 245° |
| 2026-05-07 18:17 | 41.28556 | 2.07849 | 15 ft | 16 kts | 246° |
| 2026-05-07 18:18 | 41.28513 | 2.07712 | 17 ft | 15 kts | 247° |
| 2026-05-07 18:18 | 41.28469 | 2.07578 | 17 ft | 15 kts | 246° |
| 2026-05-07 18:18 | 41.28418 | 2.07470 | 18 ft | 12 kts | 211° |
| 2026-05-07 18:18 | 41.28341 | 2.07430 | 20 ft | 11 kts | 200° |
| 2026-05-07 18:19 | 41.28265 | 2.07402 | 21 ft | 10 kts | 173° |
| 2026-05-07 18:19 | 41.28245 | 2.07477 | 21 ft | 10 kts | 66° |
| 2026-05-07 18:19 | 41.28277 | 2.07571 | 21 ft | 11 kts | 66° |
| 2026-05-07 18:19 | 41.28342 | 2.07766 | 18 ft | 51 kts | 65° |
| 2026-05-07 18:20 | 41.28599 | 2.08539 | 18 ft | 127 kts | 66° |
| 2026-05-07 18:20 | 41.29036 | 2.09838 | 198 ft | 169 kts | 68° |
| 2026-05-07 18:20 | 41.29447 | 2.11205 | 1058 ft | 159 kts | 77° |
| 2026-05-07 18:20 | 41.29518 | 2.12616 | 1869 ft | 157 kts | 95° |
| 2026-05-07 18:21 | 41.29357 | 2.14053 | 2510 ft | 162 kts | 99° |
| 2026-05-07 18:21 | 41.29160 | 2.15548 | 3044 ft | 170 kts | 99° |
| 2026-05-07 18:21 | 41.28954 | 2.17128 | 3591 ft | 179 kts | 99° |
| 2026-05-07 18:21 | 41.28747 | 2.18799 | 4116 ft | 191 kts | 97° |
| 2026-05-07 18:22 | 41.28820 | 2.20591 | 4538 ft | 207 kts | 67° |
| 2026-05-07 18:22 | 41.29408 | 2.21650 | 4817 ft | 219 kts | 41° |
| 2026-05-07 18:22 | 41.31248 | 2.23121 | 5367 ft | 248 kts | 28° |
| 2026-05-07 18:22 | 41.32826 | 2.24253 | 5916 ft | 264 kts | 30° |
| 2026-05-07 18:23 | 41.34420 | 2.25485 | 6681 ft | 270 kts | 32° |
| 2026-05-07 18:23 | 41.36015 | 2.26795 | 7512 ft | 273 kts | 33° |
| 2026-05-07 18:23 | 41.37625 | 2.28160 | 8324 ft | 275 kts | 33° |
| 2026-05-07 18:23 | 41.39218 | 2.29530 | 9082 ft | 279 kts | 33° |
| 2026-05-07 18:24 | 41.40857 | 2.30948 | 9850 ft | 282 kts | 33° |
| 2026-05-07 18:24 | 41.42574 | 2.32244 | 10487 ft | 290 kts | 25° |
| 2026-05-07 18:24 | 41.44528 | 2.33175 | 10851 ft | 307 kts | 14° |
| 2026-05-07 18:24 | 41.46669 | 2.33767 | 11177 ft | 325 kts | 10° |
| 2026-05-07 18:25 | 41.48947 | 2.34303 | 11487 ft | 342 kts | 9° |
| 2026-05-07 18:25 | 41.51362 | 2.34861 | 11790 ft | 359 kts | 10° |
| 2026-05-07 18:25 | 41.53851 | 2.35448 | 12097 ft | 374 kts | 10° |
| 2026-05-07 18:25 | 41.56441 | 2.36071 | 12629 ft | 382 kts | 9° |
| 2026-05-07 18:26 | 41.59071 | 2.36673 | 13287 ft | 385 kts | 6° |
| 2026-05-07 18:26 | 41.61753 | 2.36425 | 13855 ft | 389 kts | 343° |
| 2026-05-07 18:26 | 41.64120 | 2.34772 | 14463 ft | 390 kts | 322° |
| 2026-05-07 18:26 | 41.66209 | 2.32476 | 15123 ft | 392 kts | 319° |
| 2026-05-07 18:27 | 41.68321 | 2.30091 | 15719 ft | 396 kts | 319° |
| 2026-05-07 18:27 | 41.70450 | 2.27745 | 16318 ft | 400 kts | 319° |
| 2026-05-07 18:27 | 41.72592 | 2.25444 | 16908 ft | 402 kts | 320° |
| 2026-05-07 18:27 | 41.74810 | 2.23101 | 17500 ft | 405 kts | 320° |
| 2026-05-07 18:28 | 41.77028 | 2.20784 | 18081 ft | 407 kts | 320° |
| 2026-05-07 18:28 | 41.79274 | 2.18450 | 18640 ft | 410 kts | 320° |
| 2026-05-07 18:28 | 41.81514 | 2.16131 | 19169 ft | 413 kts | 320° |
| 2026-05-07 18:28 | 41.83807 | 2.13761 | 19660 ft | 417 kts | 320° |
| 2026-05-07 18:29 | 41.86124 | 2.11366 | 20166 ft | 420 kts | 320° |
| 2026-05-07 18:29 | 41.88423 | 2.08985 | 20633 ft | 424 kts | 320° |
| 2026-05-07 18:29 | 41.90769 | 2.06557 | 21108 ft | 427 kts | 320° |
| 2026-05-07 18:29 | 41.93137 | 2.04107 | 21545 ft | 431 kts | 319° |
| 2026-05-07 18:30 | 41.95502 | 2.01652 | 21986 ft | 435 kts | 319° |
| 2026-05-07 18:30 | 41.97902 | 1.99161 | 22426 ft | 438 kts | 319° |
| 2026-05-07 18:30 | 42.00302 | 1.96666 | 22868 ft | 441 kts | 320° |
| 2026-05-07 18:30 | 42.02732 | 1.94137 | 23290 ft | 444 kts | 319° |
| 2026-05-07 18:31 | 42.05188 | 1.91583 | 23683 ft | 447 kts | 319° |
| 2026-05-07 18:31 | 42.07657 | 1.89012 | 24017 ft | 451 kts | 319° |
| 2026-05-07 18:31 | 42.10111 | 1.86452 | 24407 ft | 454 kts | 319° |
| 2026-05-07 18:31 | 42.12613 | 1.83839 | 24769 ft | 457 kts | 319° |
| 2026-05-07 18:32 | 42.15136 | 1.81205 | 25083 ft | 460 kts | 318° |
| 2026-05-07 18:32 | 42.17667 | 1.78558 | 25413 ft | 463 kts | 318° |
| 2026-05-07 18:32 | 42.20235 | 1.75866 | 25744 ft | 466 kts | 319° |
| 2026-05-07 18:32 | 42.22774 | 1.73202 | 26180 ft | 465 kts | 318° |
| 2026-05-07 18:33 | 42.25322 | 1.70530 | 26646 ft | 464 kts | 318° |
| 2026-05-07 18:33 | 42.27869 | 1.67855 | 27066 ft | 464 kts | 317° |
| 2026-05-07 18:33 | 42.30403 | 1.65184 | 27479 ft | 464 kts | 318° |
| 2026-05-07 18:33 | 42.32930 | 1.62519 | 27875 ft | 463 kts | 317° |
| 2026-05-07 18:34 | 42.35463 | 1.59846 | 28256 ft | 463 kts | 317° |
| 2026-05-07 18:34 | 42.37977 | 1.57195 | 28601 ft | 463 kts | 317° |
| 2026-05-07 18:34 | 42.40604 | 1.54592 | 28942 ft | 468 kts | 322° |
| 2026-05-07 18:34 | 42.43445 | 1.52525 | 29254 ft | 474 kts | 332° |
| 2026-05-07 18:35 | 42.46565 | 1.51019 | 29680 ft | 479 kts | 341° |
| 2026-05-07 18:35 | 42.49837 | 1.50146 | 30118 ft | 480 kts | 349° |
| 2026-05-07 18:35 | 42.53159 | 1.49606 | 30481 ft | 480 kts | 351° |
| 2026-05-07 18:35 | 42.56491 | 1.49136 | 30746 ft | 482 kts | 351° |
| 2026-05-07 18:36 | 42.59816 | 1.48653 | 31030 ft | 482 kts | 350° |
| 2026-05-07 18:36 | 42.63142 | 1.48138 | 31285 ft | 483 kts | 350° |
| 2026-05-07 18:36 | 42.66449 | 1.47616 | 31591 ft | 482 kts | 350° |
| 2026-05-07 18:36 | 42.69797 | 1.47080 | 31933 ft | 481 kts | 350° |
| 2026-05-07 18:37 | 42.73071 | 1.46553 | 32278 ft | 479 kts | 350° |
| 2026-05-07 18:37 | 42.76404 | 1.46017 | 32538 ft | 479 kts | 350° |
| 2026-05-07 18:37 | 42.79682 | 1.45485 | 32757 ft | 480 kts | 350° |
| 2026-05-07 18:37 | 42.83009 | 1.44947 | 32920 ft | 482 kts | 350° |
| 2026-05-07 18:38 | 42.86339 | 1.44415 | 33087 ft | 484 kts | 349° |
| 2026-05-07 18:38 | 42.89693 | 1.43871 | 33308 ft | 484 kts | 350° |
| 2026-05-07 18:38 | 42.93041 | 1.43328 | 33514 ft | 485 kts | 350° |
| 2026-05-07 18:38 | 42.96378 | 1.42789 | 33702 ft | 486 kts | 349° |
| 2026-05-07 18:39 | 42.99714 | 1.42247 | 33863 ft | 487 kts | 350° |
| 2026-05-07 18:39 | 43.06482 | 1.41142 | 33930 ft | 488 kts | 350° |
| 2026-05-07 18:40 | 43.13219 | 1.40047 | 33925 ft | 489 kts | 350° |
| 2026-05-07 18:40 | 43.19954 | 1.38947 | 33930 ft | 487 kts | 350° |
| 2026-05-07 18:41 | 43.26633 | 1.37850 | 33920 ft | 487 kts | 350° |
| 2026-05-07 18:41 | 43.33350 | 1.36752 | 33924 ft | 486 kts | 350° |
| 2026-05-07 18:42 | 43.40056 | 1.35644 | 33923 ft | 483 kts | 350° |
| 2026-05-07 18:42 | 43.46708 | 1.34550 | 33925 ft | 483 kts | 349° |
| 2026-05-07 18:43 | 43.53329 | 1.33455 | 33917 ft | 481 kts | 349° |
| 2026-05-07 18:43 | 43.59947 | 1.32352 | 33928 ft | 479 kts | 349° |
| 2026-05-07 18:44 | 43.66568 | 1.31250 | 33923 ft | 479 kts | 349° |
| 2026-05-07 18:44 | 43.73096 | 1.29761 | 33933 ft | 477 kts | 346° |
| 2026-05-07 18:45 | 43.79612 | 1.28070 | 33923 ft | 475 kts | 346° |
| 2026-05-07 18:45 | 43.86090 | 1.26390 | 33916 ft | 474 kts | 346° |
| 2026-05-07 18:46 | 43.92570 | 1.24704 | 33919 ft | 473 kts | 346° |
| 2026-05-07 18:46 | 43.99006 | 1.23036 | 33919 ft | 473 kts | 346° |
| 2026-05-07 18:47 | 44.05458 | 1.21357 | 33912 ft | 472 kts | 346° |
| 2026-05-07 18:47 | 44.11894 | 1.19676 | 33913 ft | 473 kts | 347° |
| 2026-05-07 18:48 | 44.18362 | 1.17988 | 33917 ft | 471 kts | 346° |
| 2026-05-07 18:48 | 44.24752 | 1.16317 | 33915 ft | 471 kts | 346° |
| 2026-05-07 18:49 | 44.31191 | 1.14627 | 33924 ft | 472 kts | 346° |
| 2026-05-07 18:49 | 44.37635 | 1.12933 | 33917 ft | 471 kts | 347° |
| 2026-05-07 18:50 | 44.44076 | 1.11236 | 33921 ft | 471 kts | 347° |
| 2026-05-07 18:50 | 44.50517 | 1.09536 | 33921 ft | 471 kts | 347° |
| 2026-05-07 18:51 | 44.56920 | 1.07844 | 33921 ft | 471 kts | 346° |
| 2026-05-07 18:51 | 44.63358 | 1.06133 | 33923 ft | 470 kts | 346° |
| 2026-05-07 18:52 | 44.69743 | 1.04433 | 33909 ft | 469 kts | 347° |
| 2026-05-07 18:52 | 44.76166 | 1.02722 | 33912 ft | 469 kts | 347° |
| 2026-05-07 18:53 | 44.82563 | 1.01015 | 33908 ft | 469 kts | 347° |
| 2026-05-07 18:53 | 44.88957 | 0.99304 | 33921 ft | 469 kts | 347° |
| 2026-05-07 18:54 | 44.95356 | 0.97587 | 33921 ft | 470 kts | 347° |
| 2026-05-07 18:54 | 45.01779 | 0.95862 | 33912 ft | 469 kts | 346° |
| 2026-05-07 18:55 | 45.08158 | 0.94143 | 33921 ft | 469 kts | 347° |
| 2026-05-07 18:55 | 45.14586 | 0.92405 | 33925 ft | 468 kts | 347° |
| 2026-05-07 18:56 | 45.20964 | 0.90676 | 33923 ft | 468 kts | 347° |
| 2026-05-07 18:56 | 45.27339 | 0.88947 | 33931 ft | 468 kts | 347° |
| 2026-05-07 18:57 | 45.33704 | 0.87216 | 33929 ft | 468 kts | 347° |
| 2026-05-07 18:57 | 45.40083 | 0.85478 | 33923 ft | 469 kts | 347° |
| 2026-05-07 18:58 | 45.46482 | 0.83730 | 33920 ft | 469 kts | 347° |
| 2026-05-07 18:58 | 45.52904 | 0.81970 | 33922 ft | 468 kts | 346° |
| 2026-05-07 18:59 | 45.59272 | 0.80221 | 33935 ft | 468 kts | 347° |
| 2026-05-07 18:59 | 45.65667 | 0.78462 | 33929 ft | 468 kts | 347° |
| 2026-05-07 19:00 | 45.72039 | 0.76704 | 33922 ft | 468 kts | 346° |
| 2026-05-07 19:00 | 45.78400 | 0.74946 | 33930 ft | 467 kts | 346° |
| 2026-05-07 19:01 | 45.84741 | 0.73190 | 33927 ft | 467 kts | 346° |
| 2026-05-07 19:01 | 45.91112 | 0.71419 | 33941 ft | 467 kts | 346° |
| 2026-05-07 19:02 | 45.97497 | 0.69641 | 33942 ft | 467 kts | 346° |
| 2026-05-07 19:02 | 46.03849 | 0.67868 | 33945 ft | 467 kts | 346° |
| 2026-05-07 19:03 | 46.10209 | 0.66087 | 33944 ft | 466 kts | 346° |
| 2026-05-07 19:03 | 46.16555 | 0.64308 | 33951 ft | 466 kts | 346° |
| 2026-05-07 19:04 | 46.22922 | 0.62516 | 33949 ft | 466 kts | 346° |
| 2026-05-07 19:04 | 46.29263 | 0.60731 | 33952 ft | 466 kts | 346° |
| 2026-05-07 19:05 | 46.35617 | 0.58932 | 33944 ft | 466 kts | 346° |
| 2026-05-07 19:05 | 46.41958 | 0.57131 | 33941 ft | 466 kts | 346° |
| 2026-05-07 19:06 | 46.48330 | 0.55377 | 33943 ft | 467 kts | 349° |
| 2026-05-07 19:06 | 46.58078 | 0.54655 | 33950 ft | 470 kts | 1° |
| 2026-05-07 19:07 | 46.64576 | 0.55850 | 33954 ft | 473 kts | 10° |
| 2026-05-07 19:07 | 46.70966 | 0.57923 | 33955 ft | 473 kts | 11° |
| 2026-05-07 19:08 | 46.77343 | 0.60076 | 33956 ft | 473 kts | 11° |
| 2026-05-07 19:08 | 46.83764 | 0.62220 | 33954 ft | 473 kts | 11° |
| 2026-05-07 19:09 | 46.90183 | 0.64349 | 33948 ft | 474 kts | 11° |
| 2026-05-07 19:09 | 46.96612 | 0.66487 | 33955 ft | 473 kts | 11° |
| 2026-05-07 19:10 | 47.02998 | 0.68539 | 33957 ft | 471 kts | 8° |
| 2026-05-07 19:10 | 47.09453 | 0.69738 | 33966 ft | 469 kts | 2° |
| 2026-05-07 19:11 | 47.15944 | 0.70408 | 33961 ft | 468 kts | 1° |
| 2026-05-07 19:11 | 47.22467 | 0.71056 | 33979 ft | 468 kts | 2° |
| 2026-05-07 19:12 | 47.28916 | 0.71720 | 33961 ft | 468 kts | 2° |
| 2026-05-07 19:12 | 47.35408 | 0.72395 | 33989 ft | 469 kts | 2° |
| 2026-05-07 19:13 | 47.41882 | 0.73073 | 33981 ft | 468 kts | 2° |
| 2026-05-07 19:13 | 47.48351 | 0.74186 | 33977 ft | 470 kts | 8° |
| 2026-05-07 19:14 | 47.54734 | 0.76422 | 33986 ft | 472 kts | 15° |
| 2026-05-07 19:14 | 47.60946 | 0.79428 | 33980 ft | 471 kts | 17° |
| 2026-05-07 19:15 | 47.67106 | 0.82504 | 33979 ft | 462 kts | 17° |
| 2026-05-07 19:15 | 47.73136 | 0.85496 | 33995 ft | 459 kts | 17° |
| 2026-05-07 19:16 | 47.79189 | 0.88491 | 33989 ft | 459 kts | 17° |
| 2026-05-07 19:16 | 47.85206 | 0.91482 | 33979 ft | 459 kts | 17° |
| 2026-05-07 19:17 | 47.91267 | 0.94546 | 34006 ft | 459 kts | 17° |
| 2026-05-07 19:17 | 47.97253 | 0.97579 | 33994 ft | 457 kts | 17° |
| 2026-05-07 19:18 | 48.03293 | 1.00642 | 33998 ft | 456 kts | 17° |
| 2026-05-07 19:18 | 48.09280 | 1.03685 | 33987 ft | 456 kts | 17° |
| 2026-05-07 19:19 | 48.15277 | 1.06741 | 34006 ft | 456 kts | 17° |
| 2026-05-07 19:19 | 48.21274 | 1.09805 | 34003 ft | 457 kts | 17° |
| 2026-05-07 19:20 | 48.27250 | 1.12854 | 34000 ft | 457 kts | 17° |
| 2026-05-07 19:20 | 48.33244 | 1.15913 | 34006 ft | 448 kts | 17° |
| 2026-05-07 19:21 | 48.39103 | 1.18907 | 33998 ft | 445 kts | 17° |
| 2026-05-07 19:21 | 48.44906 | 1.21880 | 33998 ft | 444 kts | 17° |
| 2026-05-07 19:22 | 48.50761 | 1.24890 | 33984 ft | 444 kts | 17° |
| 2026-05-07 19:22 | 48.56596 | 1.27888 | 33994 ft | 444 kts | 17° |
| 2026-05-07 19:23 | 48.62433 | 1.30827 | 34004 ft | 443 kts | 17° |
| 2026-05-07 19:23 | 48.68272 | 1.33767 | 33990 ft | 443 kts | 16° |
| 2026-05-07 19:24 | 48.74081 | 1.36702 | 33999 ft | 442 kts | 17° |
| 2026-05-07 19:24 | 48.79905 | 1.39653 | 33996 ft | 442 kts | 17° |
| 2026-05-07 19:25 | 48.85707 | 1.42600 | 33995 ft | 442 kts | 17° |
| 2026-05-07 19:25 | 48.91505 | 1.45553 | 34004 ft | 442 kts | 17° |
| 2026-05-07 19:26 | 48.97362 | 1.48288 | 33993 ft | 441 kts | 12° |
| 2026-05-07 19:26 | 49.00373 | 1.49296 | 33712 ft | 441 kts | 8° |
| 2026-05-07 19:26 | 49.03391 | 1.50061 | 33483 ft | 440 kts | 6° |
| 2026-05-07 19:27 | 49.06383 | 1.50745 | 33222 ft | 439 kts | 6° |
| 2026-05-07 19:27 | 49.09415 | 1.51427 | 32968 ft | 439 kts | 6° |
| 2026-05-07 19:27 | 49.12422 | 1.52114 | 32703 ft | 440 kts | 6° |
| 2026-05-07 19:27 | 49.15451 | 1.52817 | 32442 ft | 440 kts | 6° |
| 2026-05-07 19:28 | 49.18479 | 1.53568 | 32176 ft | 441 kts | 9° |
| 2026-05-07 19:28 | 49.21426 | 1.54707 | 32012 ft | 442 kts | 15° |
| 2026-05-07 19:28 | 49.27074 | 1.58436 | 31999 ft | 445 kts | 28° |
| 2026-05-07 19:29 | 49.32085 | 1.63936 | 32010 ft | 446 kts | 40° |
| 2026-05-07 19:29 | 49.36577 | 1.70461 | 32005 ft | 446 kts | 44° |
| 2026-05-07 19:30 | 49.41035 | 1.77075 | 32013 ft | 446 kts | 43° |
| 2026-05-07 19:30 | 49.45497 | 1.83653 | 32012 ft | 446 kts | 43° |
| 2026-05-07 19:31 | 49.49942 | 1.90200 | 32028 ft | 446 kts | 43° |
| 2026-05-07 19:31 | 49.54395 | 1.96784 | 32026 ft | 445 kts | 43° |
| 2026-05-07 19:32 | 49.58838 | 2.03372 | 32029 ft | 445 kts | 43° |
| 2026-05-07 19:32 | 49.63285 | 2.09980 | 32030 ft | 445 kts | 43° |
| 2026-05-07 19:33 | 49.67734 | 2.16609 | 32022 ft | 446 kts | 43° |
| 2026-05-07 19:33 | 49.69963 | 2.19936 | 31847 ft | 447 kts | 43° |
| 2026-05-07 19:33 | 49.72184 | 2.23257 | 31589 ft | 446 kts | 43° |
| 2026-05-07 19:34 | 49.74429 | 2.26616 | 31327 ft | 447 kts | 43° |
| 2026-05-07 19:34 | 49.76626 | 2.29908 | 31073 ft | 447 kts | 43° |
| 2026-05-07 19:34 | 49.78861 | 2.33262 | 30812 ft | 447 kts | 43° |
| 2026-05-07 19:34 | 49.81080 | 2.36596 | 30548 ft | 447 kts | 43° |
| 2026-05-07 19:35 | 49.83306 | 2.39947 | 30200 ft | 448 kts | 43° |
| 2026-05-07 19:35 | 49.85545 | 2.43324 | 28389 ft | 477 kts | 43° |
| 2026-05-07 19:35 | 49.87968 | 2.46984 | 25405 ft | 518 kts | 43° |
| 2026-05-07 19:35 | 49.90506 | 2.50821 | 24382 ft | 512 kts | 43° |
| 2026-05-07 19:36 | 49.93005 | 2.54624 | 24575 ft | 475 kts | 44° |
| 2026-05-07 19:36 | 49.95146 | 2.58049 | 26114 ft | 433 kts | 45° |
| 2026-05-07 19:36 | 49.97202 | 2.61283 | 26981 ft | 423 kts | 43° |
| 2026-05-07 19:36 | 49.99371 | 2.64514 | 26830 ft | 439 kts | 42° |
| 2026-05-07 19:37 | 50.01554 | 2.67748 | 26377 ft | 432 kts | 43° |
| 2026-05-07 19:37 | 50.03697 | 2.70951 | 25984 ft | 420 kts | 43° |
| 2026-05-07 19:37 | 50.05747 | 2.74040 | 25745 ft | 409 kts | 44° |
| 2026-05-07 19:37 | 50.07772 | 2.77113 | 25509 ft | 402 kts | 44° |
| 2026-05-07 19:38 | 50.09763 | 2.80147 | 25271 ft | 401 kts | 44° |
| 2026-05-07 19:38 | 50.11741 | 2.83171 | 25034 ft | 401 kts | 44° |
| 2026-05-07 19:38 | 50.13717 | 2.86199 | 24795 ft | 399 kts | 44° |
| 2026-05-07 19:38 | 50.15702 | 2.89244 | 24554 ft | 397 kts | 44° |
| 2026-05-07 19:39 | 50.17648 | 2.92237 | 24319 ft | 396 kts | 44° |
| 2026-05-07 19:39 | 50.19598 | 2.95239 | 24085 ft | 394 kts | 44° |
| 2026-05-07 19:39 | 50.21542 | 2.98235 | 23844 ft | 392 kts | 44° |
| 2026-05-07 19:39 | 50.23466 | 3.01204 | 23602 ft | 390 kts | 44° |
| 2026-05-07 19:40 | 50.25400 | 3.04194 | 23363 ft | 389 kts | 44° |
| 2026-05-07 19:40 | 50.27299 | 3.07131 | 23149 ft | 387 kts | 44° |
| 2026-05-07 19:40 | 50.29205 | 3.10084 | 22937 ft | 386 kts | 44° |
| 2026-05-07 19:40 | 50.31109 | 3.13035 | 22727 ft | 385 kts | 44° |
| 2026-05-07 19:41 | 50.33013 | 3.15991 | 22511 ft | 384 kts | 44° |
| 2026-05-07 19:41 | 50.34882 | 3.18895 | 22307 ft | 383 kts | 44° |
| 2026-05-07 19:41 | 50.36778 | 3.21846 | 22091 ft | 382 kts | 44° |
| 2026-05-07 19:41 | 50.38637 | 3.24745 | 22050 ft | 381 kts | 44° |
| 2026-05-07 19:42 | 50.40530 | 3.27697 | 22036 ft | 382 kts | 44° |
| 2026-05-07 19:42 | 50.42397 | 3.30612 | 22040 ft | 382 kts | 44° |
| 2026-05-07 19:42 | 50.44265 | 3.33530 | 22027 ft | 382 kts | 44° |
| 2026-05-07 19:42 | 50.46138 | 3.36459 | 22052 ft | 382 kts | 44° |
| 2026-05-07 19:43 | 50.48028 | 3.39419 | 22066 ft | 382 kts | 44° |
| 2026-05-07 19:43 | 50.49894 | 3.42346 | 22051 ft | 382 kts | 44° |
| 2026-05-07 19:43 | 50.51783 | 3.45311 | 22043 ft | 382 kts | 43° |
| 2026-05-07 19:43 | 50.53693 | 3.48146 | 22055 ft | 381 kts | 40° |
| 2026-05-07 19:44 | 50.55725 | 3.50840 | 22046 ft | 381 kts | 37° |
| 2026-05-07 19:44 | 50.57821 | 3.53307 | 22043 ft | 380 kts | 34° |
| 2026-05-07 19:44 | 50.60003 | 3.55714 | 22048 ft | 380 kts | 33° |
| 2026-05-07 19:44 | 50.62156 | 3.58062 | 22011 ft | 378 kts | 33° |
| 2026-05-07 19:45 | 50.64287 | 3.60388 | 21698 ft | 375 kts | 33° |
| 2026-05-07 19:45 | 50.66424 | 3.62728 | 21187 ft | 374 kts | 33° |
| 2026-05-07 19:45 | 50.68534 | 3.65047 | 20706 ft | 372 kts | 34° |
| 2026-05-07 19:45 | 50.70666 | 3.67398 | 20254 ft | 369 kts | 34° |
| 2026-05-07 19:46 | 50.72744 | 3.69693 | 19810 ft | 367 kts | 34° |
| 2026-05-07 19:46 | 50.74809 | 3.71975 | 19363 ft | 364 kts | 34° |
| 2026-05-07 19:46 | 50.76878 | 3.74271 | 18900 ft | 362 kts | 34° |
| 2026-05-07 19:46 | 50.78929 | 3.76554 | 18444 ft | 360 kts | 34° |
| 2026-05-07 19:47 | 50.80964 | 3.78822 | 17996 ft | 358 kts | 34° |
| 2026-05-07 19:47 | 50.82961 | 3.81052 | 17572 ft | 355 kts | 35° |
| 2026-05-07 19:47 | 50.84757 | 3.83709 | 17118 ft | 353 kts | 53° |
| 2026-05-07 19:47 | 50.86032 | 3.86970 | 16663 ft | 352 kts | 61° |
| 2026-05-07 19:48 | 50.87186 | 3.90381 | 16154 ft | 352 kts | 62° |
| 2026-05-07 19:48 | 50.88311 | 3.93796 | 15608 ft | 351 kts | 63° |
| 2026-05-07 19:48 | 50.89436 | 3.97220 | 15096 ft | 351 kts | 63° |
| 2026-05-07 19:48 | 50.90554 | 4.00624 | 14602 ft | 350 kts | 63° |
| 2026-05-07 19:49 | 50.91679 | 4.04037 | 14080 ft | 349 kts | 63° |
| 2026-05-07 19:49 | 50.92793 | 4.07417 | 13570 ft | 348 kts | 62° |
| 2026-05-07 19:49 | 50.93901 | 4.10784 | 13084 ft | 347 kts | 62° |
| 2026-05-07 19:49 | 50.95012 | 4.14161 | 12604 ft | 346 kts | 62° |
| 2026-05-07 19:50 | 50.96117 | 4.17527 | 12069 ft | 345 kts | 62° |
| 2026-05-07 19:50 | 50.97224 | 4.20904 | 11561 ft | 344 kts | 62° |
| 2026-05-07 19:50 | 50.98317 | 4.24248 | 11057 ft | 343 kts | 62° |
| 2026-05-07 19:50 | 50.99413 | 4.27605 | 10555 ft | 341 kts | 62° |
| 2026-05-07 19:51 | 51.00473 | 4.30861 | 10206 ft | 323 kts | 62° |
| 2026-05-07 19:51 | 51.01462 | 4.33904 | 9949 ft | 303 kts | 62° |
| 2026-05-07 19:51 | 51.02409 | 4.36814 | 9697 ft | 291 kts | 63° |
| 2026-05-07 19:51 | 51.03164 | 4.39732 | 9449 ft | 287 kts | 71° |
| 2026-05-07 19:52 | 51.03795 | 4.42733 | 9152 ft | 287 kts | 72° |
| 2026-05-07 19:52 | 51.04404 | 4.45756 | 8798 ft | 285 kts | 72° |
| 2026-05-07 19:52 | 51.04997 | 4.48725 | 8448 ft | 282 kts | 72° |
| 2026-05-07 19:52 | 51.05580 | 4.51655 | 8099 ft | 279 kts | 72° |
| 2026-05-07 19:53 | 51.06167 | 4.54593 | 7655 ft | 281 kts | 72° |
| 2026-05-07 19:53 | 51.06757 | 4.57544 | 7203 ft | 282 kts | 72° |
| 2026-05-07 19:53 | 51.07354 | 4.60514 | 6750 ft | 282 kts | 72° |
| 2026-05-07 19:53 | 51.07940 | 4.63431 | 6365 ft | 277 kts | 72° |
| 2026-05-07 19:54 | 51.08517 | 4.66298 | 5980 ft | 270 kts | 73° |
| 2026-05-07 19:54 | 51.09087 | 4.69131 | 5601 ft | 268 kts | 72° |
| 2026-05-07 19:54 | 51.09642 | 4.71934 | 5225 ft | 266 kts | 72° |
| 2026-05-07 19:54 | 51.10194 | 4.74762 | 4839 ft | 265 kts | 76° |
| 2026-05-07 19:55 | 51.10403 | 4.77629 | 4517 ft | 261 kts | 90° |
| 2026-05-07 19:55 | 51.10359 | 4.80464 | 4301 ft | 255 kts | 92° |
| 2026-05-07 19:55 | 51.10218 | 4.83225 | 4020 ft | 250 kts | 103° |
| 2026-05-07 19:55 | 51.09441 | 4.85630 | 3773 ft | 245 kts | 133° |
| 2026-05-07 19:56 | 51.08031 | 4.87011 | 3588 ft | 240 kts | 164° |
| 2026-05-07 19:56 | 51.06385 | 4.87016 | 3393 ft | 239 kts | 197° |
| 2026-05-07 19:56 | 51.04949 | 4.85719 | 3229 ft | 242 kts | 218° |
| 2026-05-07 19:56 | 51.03688 | 4.83966 | 3055 ft | 241 kts | 222° |
| 2026-05-07 19:57 | 51.02458 | 4.82126 | 2872 ft | 238 kts | 223° |
| 2026-05-07 19:57 | 51.01283 | 4.80339 | 2691 ft | 234 kts | 223° |
| 2026-05-07 19:57 | 51.00113 | 4.78532 | 2519 ft | 234 kts | 224° |
| 2026-05-07 19:57 | 50.99039 | 4.76626 | 2340 ft | 235 kts | 233° |
| 2026-05-07 19:58 | 50.98177 | 4.74423 | 2165 ft | 235 kts | 244° |
| 2026-05-07 19:58 | 50.97505 | 4.72043 | 2003 ft | 232 kts | 248° |
| 2026-05-07 19:58 | 50.96907 | 4.69776 | 1975 ft | 217 kts | 247° |
| 2026-05-07 19:58 | 50.96316 | 4.67651 | 1957 ft | 202 kts | 245° |
| 2026-05-07 19:59 | 50.95744 | 4.65681 | 1961 ft | 195 kts | 245° |
| 2026-05-07 19:59 | 50.95176 | 4.63753 | 1999 ft | 193 kts | 245° |
| 2026-05-07 19:59 | 50.94620 | 4.61858 | 1742 ft | 185 kts | 245° |
| 2026-05-07 19:59 | 50.94094 | 4.60058 | 1507 ft | 172 kts | 245° |
| 2026-05-07 20:00 | 50.93614 | 4.58409 | 1270 ft | 161 kts | 245° |
| 2026-05-07 20:00 | 50.93164 | 4.56863 | 1039 ft | 150 kts | 245° |
| 2026-05-07 20:00 | 50.92730 | 4.55371 | 859 ft | 149 kts | 245° |
| 2026-05-07 20:00 | 50.92296 | 4.53874 | 669 ft | 148 kts | 246° |
| 2026-05-07 20:01 | 50.91868 | 4.52400 | 472 ft | 146 kts | 246° |
| 2026-05-07 20:01 | 50.91447 | 4.50947 | 276 ft | 145 kts | 246° |
| 2026-05-07 20:01 | 50.91031 | 4.49498 | 111 ft | 141 kts | 247° |
| 2026-05-07 20:01 | 50.90702 | 4.48360 | 107 ft | 75 kts | 246° |
| 2026-05-07 20:02 | 50.90563 | 4.47902 | 107 ft | 37 kts | 247° |
| 2026-05-07 20:02 | 50.90462 | 4.47549 | 108 ft | 33 kts | 245° |
| 2026-05-07 20:02 | 50.90368 | 4.47232 | 110 ft | 30 kts | 243° |
| 2026-05-07 20:02 | 50.90270 | 4.46956 | 111 ft | 27 kts | 239° |
| 2026-05-07 20:03 | 50.90152 | 4.46744 | 116 ft | 22 kts | 219° |
| 2026-05-07 20:03 | 50.90102 | 4.46685 | 118 ft | 0 kts | 215° |
| 2026-05-07 20:04 | 50.90095 | 4.46678 | 118 ft | 1 kts | 206° |
| 2026-05-07 20:04 | 50.90055 | 4.46710 | 118 ft | 13 kts | 108° |
| 2026-05-07 20:04 | 50.90089 | 4.46873 | 115 ft | 16 kts | 66° |
| 2026-05-07 20:05 | 50.90139 | 4.47045 | 114 ft | 17 kts | 66° |
| 2026-05-07 20:05 | 50.90188 | 4.47216 | 113 ft | 12 kts | 65° |
| 2026-05-07 20:05 | 50.90209 | 4.47286 | 113 ft | 6 kts | 66° |
| 2026-05-07 20:05 | 50.90232 | 4.47368 | 112 ft | 11 kts | 66° |
| 2026-05-07 20:06 | 50.90273 | 4.47510 | 112 ft | 14 kts | 66° |
| 2026-05-07 20:06 | 50.90317 | 4.47662 | 111 ft | 15 kts | 65° |
| 2026-05-07 20:06 | 50.90361 | 4.47811 | 112 ft | 14 kts | 65° |
| 2026-05-07 20:06 | 50.90406 | 4.47965 | 111 ft | 15 kts | 66° |
| 2026-05-07 20:07 | 50.90449 | 4.48114 | 112 ft | 15 kts | 65° |
| 2026-05-07 20:07 | 50.90493 | 4.48268 | 113 ft | 14 kts | 66° |
| 2026-05-07 20:07 | 50.90536 | 4.48416 | 112 ft | 15 kts | 65° |
| 2026-05-07 20:07 | 50.90580 | 4.48569 | 113 ft | 14 kts | 65° |
| 2026-05-07 20:08 | 50.90624 | 4.48719 | 113 ft | 15 kts | 66° |
| 2026-05-07 20:08 | 50.90665 | 4.48866 | 114 ft | 14 kts | 66° |
| 2026-05-07 20:08 | 50.90700 | 4.48987 | 115 ft | 9 kts | 66° |
| 2026-05-07 20:08 | 50.90709 | 4.49078 | 117 ft | 8 kts | 125° |
| 2026-05-07 20:09 | 50.90670 | 4.49118 | 119 ft | 5 kts | 153° |
| 2026-05-07 20:09 | 50.90649 | 4.49134 | 121 ft | 1 kts | 159° |
| 2026-05-07 20:09 | 50.90633 | 4.49144 | 122 ft | 15 kts | 157° |
| 2026-05-07 20:10 | 50.90472 | 4.49260 | 133 ft | 8 kts | 156° |
| 2026-05-07 20:10 | 50.90449 | 4.49277 | 134 ft | 0 kts | 156° |
| 2026-05-07 20:10 | 50.90445 | 4.49280 | 134 ft | 2 kts | 156° |
| 2026-05-07 20:10 | 50.90433 | 4.49289 | 135 ft | 3 kts | 156° |
| 2026-05-07 20:11 | 50.90396 | 4.49277 | 136 ft | 7 kts | 222° |
| 2026-05-07 20:11 | 50.90367 | 4.49200 | 138 ft | 8 kts | 245° |
| 2026-05-07 20:11 | 50.90347 | 4.49117 | 137 ft | 8 kts | 273° |
| 2026-05-07 20:11 | 50.90384 | 4.49068 | 134 ft | 0 kts | 337° |
| 2026-05-07 20:12 | 50.90396 | 4.49060 | 133 ft | 3 kts | 336° |
| 2026-05-07 20:12 | 50.90406 | 4.49052 | 133 ft | 1 kts | 336° |
| 2026-05-07 20:12 | 50.90409 | 4.49050 | 132 ft | 0 kts | 336° |